Almont, ND

2:39 PM MDT on August 25, 2016 (GMT -0600)
Lake Tschida | | Change Station

Elev 2080 ft 46.61 °N, 101.83 °W | Updated 0 second ago

Overcast
Overcast
67.3 °F
Feels Like 67.3 °F
N
4.5
Wind Variable Wind from WNW
Gusts 7.4 mph

Today
High -- | Low -- °F
--% Chance of Precip.
Yesterday
High -- | Low -- °F
Precip. -- in
Pressure 30.17 in
Visibility 10.0 miles
Clouds Few 5000 ft
Overcast 8000 ft
Dew Point 44 °F
Humidity 42%
Rainfall 0.00 in
Snow Depth Not available.
5:57 AM 7:37 PM
Last Quarter, 42% visible
METAR KD57 252035Z AUTO 31006G12KT 10SM FEW050 OVC080 19/05 A3017 RMK AO2
Pressure 30.17 in
Visibility 10.0 miles
Clouds Few 5000 ft
Overcast 8000 ft
Dew Point 44 °F
Humidity 42%
Rainfall 0.00 in
Snow Depth Not available.
5:57 AM 7:37 PM
Last Quarter, 42% visible
METAR KD57 252035Z AUTO 31006G12KT 10SM FEW050 OVC080 19/05 A3017 RMK AO2
A tropical disturbance pushing toward the Bahamas, is expected to develop into a tropical depression or storm, and will likely target Florida and the Gulf Coast this weekend into next week.

Right now, the disturbance remains a broad area of low pressure pushing through the Dominican Republic and Haiti, headed toward the southeast Bahamas. Rainfall totals over 3 inches (with locally higher amounts) are expected in HispaƱiola, particularly over elevated terrain.

10-Day Weather Forecast

Almanac

Astronomy

Aug. 25, 2016 Rise Set
Actual Time
Civil Twilight
Nautical Twilight
Astronomical Twilight
Moon
Length of Visible Light
Length of Day
Tomorrow will be .
, % of the Moon is Illuminated

Today's Extremes

State Highs State Lows

Community

WunderPhotos

Upload Photos

1,934,930 photos uploaded!

WunderBlog® & News

Nearby

Air Quality

  Air Quality AQ Index Pollutant
Not available.

Snow Depth

Station Depth Elevation

Earthquake Activity

City Distance Mag. Time & Date
Minimum magnitude displayed is 2.5.

Coastal Water Temperatures

Place Temperature

Stations

Nearby Weather Stations

Station Location Temp. Windchill Dew Point Humidity Wind Precip. Elev Updated Type
                   

Watches & Warnings

There are currently no watches in effect.